Terminal Aerodrome Forecast
Issued by NWS

Home | Current Version | Previous Version | Text Only | Print | Product List | Glossary On
Versions: 1 2 3 4 5 6 7 8 9 10 11 12 13 14 15 16 17 18
000
FTUS45 KABQ 241100
TAFLVS
TAF
KLVS 241137Z 2412/2512 05006KT P6SM FEW250
     FM241800 19008KT P6SM SKC
     FM242000 21012KT P6SM SKC
     FM250300 VRB06KT P6SM SKC=

USA.gov is the U.S. government's official web portal to all federal, state and local government web resources and services.